Time;durP1;ratioP1;P1;durP2;ratioP2;P2;SDS_P1;SDS_P2;PMS_P1;PMS_P2;Temp;Humidity;BMP_temperature;BMP_pressure;BME280_temperature;BME280_humidity;BME280_pressure;Samples;Min_cycle;Max_cycle;Signal;HPM_P1;HPM_P2
2021/09/19 00:00:13;;;;;;;3.90;2.00;;;;;;;13.81;84.66;100812.97;694655;28;1358;-52
2021/09/19 00:00:34;;;;;;;3.10;1.98;;;;;;;13.78;85.61;100806.84;694705;28;1270;-51
2021/09/19 00:00:54;;;;;;;4.53;2.00;;;;;;;13.78;84.66;100811.25;693011;28;1200;-53
2021/09/19 00:01:15;;;;;;;4.20;1.92;;;;;;;13.74;84.55;100809.56;693842;28;1785;-51
2021/09/19 00:01:35;;;;;;;3.30;2.00;;;;;;;13.70;84.84;100807.88;693824;28;1341;-53
2021/09/19 00:01:55;;;;;;;3.20;2.00;;;;;;;13.70;84.47;100810.50;691910;28;1405;-54
2021/09/19 00:02:16;;;;;;;3.42;1.95;;;;;;;13.72;85.71;100808.69;692158;28;1159;-54
2021/09/19 00:02:38;;;;;;;3.77;2.00;;;;;;;13.70;85.33;100813.13;691910;28;1199;-56
2021/09/19 00:02:59;;;;;;;3.72;1.90;;;;;;;13.72;84.71;100814.84;693580;28;4285;-54
2021/09/19 00:03:19;;;;;;;3.00;2.00;;;;;;;13.75;84.41;100812.16;695162;28;1272;-53
2021/09/19 00:03:39;;;;;;;2.83;1.90;;;;;;;13.74;84.81;100810.41;694700;28;3025;-55
2021/09/19 00:04:00;;;;;;;3.50;2.00;;;;;;;13.70;84.58;100816.63;696677;28;3769;-56
2021/09/19 00:04:20;;;;;;;3.10;1.80;;;;;;;13.70;84.73;100807.88;694347;28;4012;-59
2021/09/19 00:04:41;;;;;;;3.17;1.83;;;;;;;13.73;83.94;100808.69;693280;28;1521;-54
2021/09/19 00:05:02;;;;;;;2.97;1.90;;;;;;;13.78;84.22;100811.25;694063;28;1413;-52
2021/09/19 00:05:22;;;;;;;3.10;2.00;;;;;;;13.78;85.74;100809.47;694049;28;1126;-51
2021/09/19 00:05:43;;;;;;;4.13;2.10;;;;;;;13.71;85.38;100809.63;695979;28;4567;-57
2021/09/19 00:06:03;;;;;;;4.38;2.30;;;;;;;13.67;84.39;100810.56;696714;28;1263;-51
2021/09/19 00:06:25;;;;;;;3.90;2.20;;;;;;;13.63;84.35;100805.31;697435;28;1145;-55
2021/09/19 00:06:45;;;;;;;3.40;1.80;;;;;;;13.63;84.55;100813.22;697431;28;986;-51
2021/09/19 00:07:06;;;;;;;3.80;1.97;;;;;;;13.63;85.29;100812.34;697668;28;1162;-53
2021/09/19 00:07:26;;;;;;;3.90;1.83;;;;;;;13.66;85.09;100811.44;697631;28;1182;-52
2021/09/19 00:07:46;;;;;;;2.90;1.73;;;;;;;13.70;84.58;100807.88;697227;28;1107;-55
2021/09/19 00:08:07;;;;;;;2.83;1.88;;;;;;;13.68;85.76;100814.91;697809;28;1274;-53
2021/09/19 00:08:27;;;;;;;2.77;1.80;;;;;;;13.63;85.09;100810.56;697742;28;1299;-51
2021/09/19 00:08:48;;;;;;;3.58;2.00;;;;;;;13.59;85.14;100803.63;696010;28;4482;-53
2021/09/19 00:09:08;;;;;;;3.93;2.10;;;;;;;13.59;84.97;100811.50;696621;28;3515;-54
2021/09/19 00:09:29;;;;;;;4.20;1.98;;;;;;;13.61;84.75;100803.63;697538;28;1199;-52
2021/09/19 00:09:49;;;;;;;3.00;1.80;;;;;;;13.61;85.63;100809.75;696118;28;1887;-53
2021/09/19 00:10:13;;;;;;;3.03;1.70;;;;;;;13.59;85.21;100808.88;697845;28;987;-54
2021/09/19 00:10:33;;;;;;;5.00;1.85;;;;;;;13.57;84.81;100808.06;698022;28;1015;-53
2021/09/19 00:10:55;;;;;;;4.25;1.90;;;;;;;13.57;85.12;100805.44;697204;28;1197;-52
2021/09/19 00:11:15;;;;;;;3.70;2.10;;;;;;;13.56;86.01;100806.31;697616;28;1328;-53
2021/09/19 00:11:35;;;;;;;4.25;2.10;;;;;;;13.60;85.15;100808.00;697334;28;1169;-52
2021/09/19 00:11:56;;;;;;;3.47;1.87;;;;;;;13.65;85.25;100807.06;696505;28;4340;-55
2021/09/19 00:12:16;;;;;;;3.65;1.70;;;;;;;13.61;85.12;100806.25;697057;28;3534;-56
2021/09/19 00:12:37;;;;;;;3.53;1.80;;;;;;;13.59;84.52;100805.41;697020;28;1631;-54
2021/09/19 00:12:58;;;;;;;3.28;1.85;;;;;;;13.64;84.44;100808.84;697297;28;1394;-54
2021/09/19 00:13:19;;;;;;;7.00;2.20;;;;;;;13.67;84.58;100805.31;697327;28;1353;-53
2021/09/19 00:13:39;;;;;;;8.65;2.25;;;;;;;13.71;85.42;100809.63;697021;28;1203;-53
2021/09/19 00:14:00;;;;;;;3.90;1.80;;;;;;;13.68;85.96;100809.63;697732;28;1154;-53
2021/09/19 00:14:20;;;;;;;3.42;1.80;;;;;;;13.65;84.82;100812.31;697845;28;1221;-53
2021/09/19 00:14:41;;;;;;;4.47;1.93;;;;;;;13.61;84.63;100804.50;697243;28;4394;-53
2021/09/19 00:15:02;;;;;;;3.60;1.90;;;;;;;13.64;84.80;100806.22;694798;28;1401;-58
2021/09/19 00:15:23;;;;;;;3.83;1.85;;;;;;;13.68;84.91;100804.38;694371;28;3267;-51
2021/09/19 00:15:43;;;;;;;2.87;1.70;;;;;;;13.70;84.51;100803.47;693993;28;4222;-51
2021/09/19 00:16:04;;;;;;;2.85;1.80;;;;;;;13.73;84.30;100803.41;694655;28;1069;-52
2021/09/19 00:16:25;;;;;;;3.33;1.83;;;;;;;13.77;84.15;100806.88;694801;28;1145;-55
2021/09/19 00:16:45;;;;;;;3.03;1.70;;;;;;;13.76;84.62;100797.25;694831;28;1146;-53
2021/09/19 00:17:06;;;;;;;2.78;1.60;;;;;;;13.76;84.32;100808.66;694962;28;1191;-53
2021/09/19 00:17:26;;;;;;;2.87;1.80;;;;;;;13.78;84.24;100806.00;694720;28;1128;-53
2021/09/19 00:17:47;;;;;;;3.60;1.80;;;;;;;13.70;84.19;100808.72;693295;28;4324;-54
2021/09/19 00:18:07;;;;;;;3.38;1.92;;;;;;;13.65;84.45;100807.06;694430;28;1155;-51
2021/09/19 00:18:28;;;;;;;3.00;1.93;;;;;;;13.65;84.54;100809.69;693917;28;3793;-54
2021/09/19 00:18:49;;;;;;;3.03;1.63;;;;;;;13.61;84.30;100803.63;694823;28;4159;-54
2021/09/19 00:19:11;;;;;;;2.87;1.80;;;;;;;13.65;84.19;100802.66;694428;28;1321;-53
2021/09/19 00:19:32;;;;;;;2.85;1.80;;;;;;;13.67;85.36;100807.94;694521;28;1278;-55
2021/09/19 00:19:52;;;;;;;3.80;1.77;;;;;;;13.65;86.22;100810.56;694476;28;1176;-53
2021/09/19 00:20:13;;;;;;;3.90;1.80;;;;;;;13.65;86.05;100805.28;695080;28;1337;-51
2021/09/19 00:20:33;;;;;;;3.90;1.80;;;;;;;13.68;84.85;100809.63;695149;28;1099;-52
2021/09/19 00:20:54;;;;;;;2.67;1.60;;;;;;;13.69;85.10;100806.13;695979;28;4325;-53
2021/09/19 00:21:14;;;;;;;3.22;1.60;;;;;;;13.69;84.41;100803.50;697657;28;1213;-52
2021/09/19 00:21:37;;;;;;;4.10;1.80;;;;;;;13.65;84.26;100804.44;697505;28;1336;-52
2021/09/19 00:21:57;;;;;;;2.85;1.90;;;;;;;13.69;84.37;100806.13;696966;28;3475;-51
2021/09/19 00:22:18;;;;;;;2.88;1.77;;;;;;;13.66;84.27;100812.28;697090;28;1474;-51
2021/09/19 00:22:39;;;;;;;2.90;1.70;;;;;;;13.59;84.35;100808.88;697048;28;1367;-55
2021/09/19 00:22:59;;;;;;;3.67;1.80;;;;;;;13.55;84.07;100808.97;697792;28;1636;-52
2021/09/19 00:23:20;;;;;;;4.40;1.80;;;;;;;13.60;84.39;100805.38;697856;28;1118;-53
2021/09/19 00:23:40;;;;;;;3.77;1.93;;;;;;;13.64;84.58;100808.84;692047;28;1238;-56
2021/09/19 00:24:00;;;;;;;2.90;1.90;;;;;;;13.65;84.71;100813.19;691835;28;4569;-52
2021/09/19 00:24:23;;;;;;;2.80;1.83;;;;;;;13.63;86.28;100804.47;692704;28;1156;-52
2021/09/19 00:24:44;;;;;;;3.22;2.08;;;;;;;13.60;85.40;100810.63;691983;28;1232;-54
2021/09/19 00:25:06;;;;;;;3.77;1.90;;;;;;;13.64;84.73;100806.22;692329;28;1879;-56
2021/09/19 00:25:26;;;;;;;3.28;1.80;;;;;;;13.67;84.83;100811.41;692852;28;1147;-53
2021/09/19 00:25:47;;;;;;;3.37;1.80;;;;;;;13.64;84.99;100808.84;694727;28;1600;-53
2021/09/19 00:26:07;;;;;;;3.30;1.87;;;;;;;13.61;84.98;100804.50;695205;28;1269;-51
2021/09/19 00:26:28;;;;;;;4.33;2.00;;;;;;;13.56;84.94;100811.56;695438;28;1147;-51
2021/09/19 00:26:49;;;;;;;3.47;1.75;;;;;;;13.58;84.85;100804.56;694152;28;4310;-55
2021/09/19 00:27:09;;;;;;;2.80;1.80;;;;;;;13.58;85.27;100807.19;691325;28;1565;-52
2021/09/19 00:27:30;;;;;;;3.70;1.80;;;;;;;13.55;84.98;100803.72;691611;28;1148;-55
2021/09/19 00:27:50;;;;;;;3.65;1.90;;;;;;;13.56;84.71;100805.47;691624;28;1140;-53
2021/09/19 00:28:11;;;;;;;2.70;1.80;;;;;;;13.55;84.76;100807.19;694435;28;3266;-51
2021/09/19 00:28:31;;;;;;;2.55;1.80;;;;;;;13.54;84.45;100807.22;694524;28;4956;-56
2021/09/19 00:28:51;;;;;;;2.97;1.70;;;;;;;13.53;85.13;100808.13;696698;28;1334;-52
2021/09/19 00:29:12;;;;;;;3.00;1.80;;;;;;;13.53;85.34;100810.75;697877;28;1320;-52
2021/09/19 00:29:32;;;;;;;2.75;1.83;;;;;;;13.50;85.36;100805.53;698051;28;1184;-52
2021/09/19 00:29:52;;;;;;;3.00;1.80;;;;;;;13.50;85.33;100803.78;695518;28;4387;-53
2021/09/19 00:30:13;;;;;;;2.88;1.73;;;;;;;13.54;85.03;100805.47;695078;28;1229;-55
2021/09/19 00:30:33;;;;;;;3.07;1.80;;;;;;;13.56;84.68;100805.47;695668;28;1083;-55
2021/09/19 00:30:54;;;;;;;3.05;1.73;;;;;;;13.53;85.48;100800.25;695100;28;1003;-52
2021/09/19 00:31:14;;;;;;;3.00;1.73;;;;;;;13.50;85.43;100797.66;694999;28;1051;-54
2021/09/19 00:31:34;;;;;;;2.90;1.80;;;;;;;13.47;85.50;100802.97;694374;28;4046;-54
2021/09/19 00:31:55;;;;;;;3.80;1.90;;;;;;;13.44;85.42;100803.88;694619;28;1333;-51
2021/09/19 00:32:15;;;;;;;3.40;1.90;;;;;;;13.44;85.05;100801.25;694615;28;1324;-55
2021/09/19 00:32:36;;;;;;;3.05;1.90;;;;;;;13.47;85.02;100803.81;694741;28;1187;-53
2021/09/19 00:32:58;;;;;;;3.28;1.73;;;;;;;13.51;84.82;100802.88;696111;28;4639;-54
2021/09/19 00:33:19;;;;;;;2.67;1.70;;;;;;;13.54;85.98;100804.59;695766;28;2048;-51
2021/09/19 00:33:39;;;;;;;3.50;1.70;;;;;;;13.52;85.84;100799.38;697548;28;1420;-53
2021/09/19 00:33:59;;;;;;;3.37;1.70;;;;;;;13.56;85.48;100802.84;698316;28;1202;-51
2021/09/19 00:34:20;;;;;;;2.70;1.70;;;;;;;13.56;86.05;100800.19;697459;28;1103;-51
2021/09/19 00:34:40;;;;;;;2.90;1.70;;;;;;;13.49;85.87;100803.81;697416;28;3445;-51
2021/09/19 00:35:04;;;;;;;3.20;1.70;;;;;;;13.51;86.15;100807.28;697336;28;3431;-53
2021/09/19 00:35:25;;;;;;;3.13;1.77;;;;;;;13.52;85.21;100801.13;698127;28;1087;-56
2021/09/19 00:35:45;;;;;;;3.10;1.80;;;;;;;13.54;86.54;100802.84;696131;28;4429;-52
2021/09/19 00:36:06;;;;;;;3.57;1.70;;;;;;;13.54;86.12;100796.72;695380;28;1079;-54
2021/09/19 00:36:26;;;;;;;2.70;1.80;;;;;;;13.52;87.08;100802.00;694938;28;1199;-52
2021/09/19 00:36:47;;;;;;;2.63;1.73;;;;;;;13.49;86.52;100802.06;695286;28;1130;-51
2021/09/19 00:37:08;;;;;;;3.42;1.70;;;;;;;13.48;86.42;100802.94;695117;28;1154;-52
2021/09/19 00:37:29;;;;;;;3.13;1.80;;;;;;;13.48;86.34;100797.69;695222;28;1152;-52
2021/09/19 00:37:49;;;;;;;2.40;1.60;;;;;;;13.46;86.85;100799.47;691849;28;1550;-51
2021/09/19 00:38:09;;;;;;;2.70;1.60;;;;;;;13.48;85.96;100799.44;692000;28;3698;-53
2021/09/19 00:38:30;;;;;;;2.58;1.60;;;;;;;13.52;85.70;100804.63;694050;28;1246;-53
2021/09/19 00:38:53;;;;;;;3.57;1.73;;;;;;;13.51;85.51;100797.63;693987;28;5456;-53
2021/09/19 00:39:13;;;;;;;3.05;1.70;;;;;;;13.48;85.52;100802.94;695182;28;1182;-51
2021/09/19 00:39:33;;;;;;;3.83;1.70;;;;;;;13.52;85.66;100793.25;695196;28;1310;-53
2021/09/19 00:39:54;;;;;;;2.90;1.60;;;;;;;13.50;86.66;100801.16;696328;28;1078;-53
2021/09/19 00:40:14;;;;;;;3.37;1.80;;;;;;;13.44;85.91;100803.88;695351;28;1265;-53
2021/09/19 00:40:34;;;;;;;3.22;1.67;;;;;;;13.43;85.76;100800.38;694882;28;1130;-53
2021/09/19 00:40:55;;;;;;;2.60;1.70;;;;;;;13.48;85.61;100797.69;695033;28;1091;-53
2021/09/19 00:41:16;;;;;;;3.30;1.77;;;;;;;13.48;85.61;100795.06;694260;28;3445;-53
2021/09/19 00:41:36;;;;;;;4.00;1.70;;;;;;;13.50;85.32;100798.53;693949;28;1423;-56
2021/09/19 00:41:57;;;;;;;2.78;1.67;;;;;;;13.51;85.73;100792.38;694552;28;5745;-54
2021/09/19 00:42:17;;;;;;;2.83;1.77;;;;;;;13.53;86.26;100801.13;695235;28;995;-53
2021/09/19 00:42:38;;;;;;;3.73;1.80;;;;;;;13.50;86.72;100792.41;694135;28;1425;-52
2021/09/19 00:42:58;;;;;;;3.80;1.92;;;;;;;13.52;85.59;100799.38;695489;28;1166;-52
2021/09/19 00:43:18;;;;;;;3.40;1.70;;;;;;;13.50;85.68;100795.91;695339;28;1194;-55
2021/09/19 00:43:39;;;;;;;3.40;1.60;;;;;;;13.52;85.27;100794.13;695024;28;1163;-52
2021/09/19 00:44:06;;;;;;;4.50;1.77;;;;;;;13.47;86.06;100801.19;694996;28;1198;-53
2021/09/19 00:44:28;;;;;;;4.32;2.10;;;;;;;13.51;85.25;100799.41;694990;28;1150;-53
2021/09/19 00:45:01;;;;;;;3.25;2.00;;;;;;;13.50;84.89;100795.03;693946;28;4568;-54
2021/09/19 00:45:23;;;;;;;3.25;1.80;;;;;;;13.51;85.05;100800.25;694298;28;1267;-53
2021/09/19 00:45:43;;;;;;;3.25;1.80;;;;;;;13.53;85.89;100797.63;694835;28;1428;-52
2021/09/19 00:46:04;;;;;;;3.30;1.70;;;;;;;13.50;85.90;100795.91;695380;28;1048;-53
2021/09/19 00:46:24;;;;;;;2.63;1.63;;;;;;;13.50;85.23;100795.91;695425;28;1245;-54
2021/09/19 00:46:44;;;;;;;2.75;1.80;;;;;;;13.52;85.63;100799.38;694626;28;1019;-52
2021/09/19 00:47:05;;;;;;;3.20;1.80;;;;;;;13.53;85.23;100801.13;695601;28;1142;-54
2021/09/19 00:47:25;;;;;;;3.33;1.70;;;;;;;13.56;85.01;100798.44;695051;28;1213;-52
2021/09/19 00:47:47;;;;;;;3.03;1.70;;;;;;;13.57;84.83;100794.94;694568;28;4513;-52
2021/09/19 00:48:08;;;;;;;3.20;1.70;;;;;;;13.52;86.55;100796.75;697507;28;1472;-52
2021/09/19 00:48:30;;;;;;;3.13;1.77;;;;;;;13.55;85.42;100795.84;698070;28;1145;-53
2021/09/19 00:48:51;;;;;;;3.92;1.70;;;;;;;13.56;85.94;100798.44;697174;28;1474;-53
2021/09/19 00:49:11;;;;;;;3.28;1.70;;;;;;;13.56;85.81;100790.56;698353;28;1352;-53
2021/09/19 00:49:31;;;;;;;4.73;1.77;;;;;;;13.55;86.12;100791.44;698332;28;1273;-52
2021/09/19 00:49:52;;;;;;;3.20;1.60;;;;;;;13.51;85.87;100797.63;697897;28;1989;-51
2021/09/19 00:50:14;;;;;;;2.85;1.60;;;;;;;13.52;85.81;100790.63;698189;28;1459;-52
2021/09/19 00:50:35;;;;;;;3.47;1.67;;;;;;;13.50;86.18;100795.91;697694;28;1340;-57
2021/09/19 00:50:55;;;;;;;3.47;1.70;;;;;;;13.51;85.99;100797.63;697010;28;4389;-52
2021/09/19 00:51:15;;;;;;;2.27;1.60;;;;;;;13.49;86.22;100785.44;697875;28;1305;-53
2021/09/19 00:51:37;;;;;;;2.90;1.70;;;;;;;13.50;86.37;100789.78;697580;28;1136;-54
2021/09/19 00:51:57;;;;;;;3.58;1.65;;;;;;;13.48;86.63;100791.56;697909;28;1345;-53
2021/09/19 00:52:18;;;;;;;3.17;1.70;;;;;;;13.51;85.63;100795.00;698321;28;1273;-53
2021/09/19 00:52:40;;;;;;;3.10;1.70;;;;;;;13.58;85.46;100796.66;697752;28;1074;-53
2021/09/19 00:53:01;;;;;;;3.65;1.70;;;;;;;13.61;85.43;100788.72;698141;28;1365;-52
2021/09/19 00:53:21;;;;;;;3.67;1.70;;;;;;;13.61;85.72;100791.38;697183;28;1142;-53
2021/09/19 00:53:43;;;;;;;3.10;1.70;;;;;;;13.62;85.19;100795.72;697403;28;4437;-52
2021/09/19 00:54:05;;;;;;;2.92;1.77;;;;;;;13.56;86.03;100790.56;695094;28;3132;-51
2021/09/19 00:54:27;;;;;;;3.70;1.70;;;;;;;13.51;85.91;100787.13;695006;28;3645;-51
2021/09/19 00:54:50;;;;;;;3.25;1.70;;;;;;;13.52;85.28;100788.88;695001;28;1100;-51
2021/09/19 00:55:12;;;;;;;3.55;1.65;;;;;;;13.50;86.18;100790.66;694855;28;1494;-56
2021/09/19 00:55:33;;;;;;;3.42;1.70;;;;;;;13.49;85.97;100791.53;695721;28;1186;-55
2021/09/19 00:55:56;;;;;;;3.35;1.85;;;;;;;13.48;85.54;100787.19;694912;28;3864;-54
2021/09/19 00:56:23;;;;;;;3.17;1.60;;;;;;;13.42;86.23;100793.38;695100;28;1185;-56
2021/09/19 00:56:46;;;;;;;2.50;1.50;;;;;;;13.45;85.62;100797.72;694673;28;4314;-51
2021/09/19 00:57:08;;;;;;;3.38;1.58;;;;;;;13.47;86.34;100788.06;697083;28;1450;-54
2021/09/19 00:57:28;;;;;;;3.00;1.50;;;;;;;13.44;85.55;100791.63;697952;28;4063;-53
2021/09/19 00:57:54;;;;;;;2.30;1.40;;;;;;;13.46;85.18;100791.59;697555;28;1030;-52
2021/09/19 00:58:17;;;;;;;2.97;1.50;;;;;;;13.47;85.74;100790.69;697935;28;1317;-54
2021/09/19 00:58:39;;;;;;;2.40;1.42;;;;;;;13.46;85.52;100794.22;697805;28;1282;-54
2021/09/19 00:59:00;;;;;;;3.00;1.52;;;;;;;13.48;86.04;100794.19;697703;28;1083;-54
2021/09/19 00:59:24;;;;;;;3.43;1.57;;;;;;;13.42;85.34;100793.38;697811;28;1305;-52
2021/09/19 00:59:49;;;;;;;3.72;1.63;;;;;;;13.45;85.10;100800.34;695600;28;4447;-53
2021/09/19 01:00:14;;;;;;;2.47;1.60;;;;;;;13.47;85.40;100795.94;694448;28;1385;-52
2021/09/19 01:00:35;;;;;;;2.50;1.60;;;;;;;13.42;84.94;100796.00;694725;28;2337;-56
2021/09/19 01:00:56;;;;;;;2.33;1.50;;;;;;;13.40;85.25;100789.03;694217;28;3883;-51
2021/09/19 01:01:16;;;;;;;2.90;1.60;;;;;;;13.41;84.74;100790.78;691880;28;1272;-55
2021/09/19 01:01:40;;;;;;;2.33;1.40;;;;;;;13.43;85.23;100792.50;691605;28;1475;-54
2021/09/19 01:02:02;;;;;;;2.75;1.55;;;;;;;13.38;85.21;100796.09;693649;28;1146;-51
2021/09/19 01:02:22;;;;;;;3.17;1.70;;;;;;;13.41;85.10;100791.63;692227;28;1193;-54
2021/09/19 01:02:43;;;;;;;2.50;1.47;;;;;;;13.42;85.19;100792.53;692190;28;4376;-52
2021/09/19 01:03:04;;;;;;;3.25;1.63;;;;;;;13.39;85.18;100788.19;692036;28;1245;-52
2021/09/19 01:03:26;;;;;;;3.20;1.60;;;;;;;13.43;84.90;100791.63;691466;28;1245;-54
2021/09/19 01:03:47;;;;;;;3.00;1.60;;;;;;;13.44;86.03;100786.38;690764;28;1103;-56
2021/09/19 01:04:08;;;;;;;3.20;1.60;;;;;;;13.44;85.39;100793.38;692028;28;1278;-52
2021/09/19 01:04:28;;;;;;;2.65;1.60;;;;;;;13.42;85.11;100790.75;693016;28;1072;-53
2021/09/19 01:04:49;;;;;;;2.50;1.40;;;;;;;13.42;85.34;100792.53;694304;28;1122;-52
2021/09/19 01:05:12;;;;;;;2.55;1.50;;;;;;;13.42;85.23;100788.13;695288;28;1345;-51
2021/09/19 01:05:32;;;;;;;2.50;1.58;;;;;;;13.43;85.61;100786.38;696676;28;3680;-54
2021/09/19 01:05:53;;;;;;;2.47;1.50;;;;;;;13.42;85.78;100785.50;696847;28;4464;-53
2021/09/19 01:06:16;;;;;;;3.73;1.60;;;;;;;13.47;85.18;100790.69;694507;28;1262;-53
2021/09/19 01:06:36;;;;;;;2.83;1.50;;;;;;;13.48;84.89;100789.81;693223;28;1341;-55
2021/09/19 01:06:57;;;;;;;2.72;1.60;;;;;;;13.49;84.76;100788.91;694849;28;1086;-54
2021/09/19 01:07:17;;;;;;;3.37;1.53;;;;;;;13.49;84.54;100788.91;697099;28;1516;-55
2021/09/19 01:07:40;;;;;;;3.38;1.50;;;;;;;13.52;84.34;100788.88;693919;28;1256;-52
2021/09/19 01:08:01;;;;;;;3.22;1.40;;;;;;;13.55;84.11;100788.81;694403;28;1192;-54
2021/09/19 01:08:22;;;;;;;2.40;1.35;;;;;;;13.57;84.07;100791.44;697034;28;1593;-52
2021/09/19 01:08:44;;;;;;;3.30;1.55;;;;;;;13.59;83.76;100789.66;695774;28;4862;-51
2021/09/19 01:09:04;;;;;;;3.28;1.60;;;;;;;13.57;85.19;100788.81;697651;28;1257;-52
2021/09/19 01:09:25;;;;;;;3.35;1.60;;;;;;;13.55;86.07;100790.59;698089;28;1138;-53
2021/09/19 01:09:46;;;;;;;2.50;1.40;;;;;;;13.56;84.58;100784.44;697249;28;1155;-55
2021/09/19 01:10:07;;;;;;;2.88;1.40;;;;;;;13.60;83.41;100784.38;698071;28;1917;-53
2021/09/19 01:10:28;;;;;;;3.15;1.45;;;;;;;13.61;83.78;100785.25;697836;28;3541;-56
2021/09/19 01:10:48;;;;;;;4.13;1.70;;;;;;;13.59;84.65;100789.66;697162;28;1220;-54
2021/09/19 01:11:14;;;;;;;3.67;1.57;;;;;;;13.58;84.48;100786.16;697920;28;1280;-53
2021/09/19 01:11:35;;;;;;;1.88;1.23;;;;;;;13.59;84.52;100785.25;697970;28;1317;-51
2021/09/19 01:11:56;;;;;;;3.00;1.40;;;;;;;13.59;84.41;100787.03;697181;28;4339;-51
2021/09/19 01:12:19;;;;;;;2.88;1.50;;;;;;;13.59;84.46;100787.88;698202;28;1496;-55
2021/09/19 01:12:41;;;;;;;3.08;1.40;;;;;;;13.61;83.81;100790.50;696828;28;1168;-52
2021/09/19 01:13:03;;;;;;;3.33;1.45;;;;;;;13.63;84.13;100786.94;698392;28;1059;-52
2021/09/19 01:13:26;;;;;;;3.53;1.50;;;;;;;13.58;84.83;100788.78;697738;28;3703;-53
2021/09/19 01:13:48;;;;;;;2.33;1.50;;;;;;;13.58;84.52;100788.78;696737;28;1450;-51
2021/09/19 01:14:13;;;;;;;2.83;1.45;;;;;;;13.58;84.92;100787.91;698121;28;1371;-54
2021/09/19 01:14:37;;;;;;;3.13;1.50;;;;;;;13.59;85.08;100787.88;697928;28;1309;-51
2021/09/19 01:14:59;;;;;;;2.97;1.55;;;;;;;13.60;84.00;100783.50;697528;28;4627;-52
2021/09/19 01:15:20;;;;;;;3.05;1.48;;;;;;;13.65;83.38;100792.16;697954;28;1150;-52
2021/09/19 01:15:41;;;;;;;3.03;1.50;;;;;;;13.66;83.48;100790.41;697748;28;1358;-53
2021/09/19 01:16:03;;;;;;;3.03;1.50;;;;;;;13.66;84.44;100795.69;698007;28;1209;-53
2021/09/19 01:16:23;;;;;;;2.83;1.60;;;;;;;13.63;85.12;100786.09;697735;28;3498;-54
2021/09/19 01:16:43;;;;;;;3.17;1.42;;;;;;;13.56;85.54;100789.69;696358;28;1074;-52
2021/09/19 01:17:05;;;;;;;3.57;1.40;;;;;;;13.50;85.07;100787.16;697657;28;1469;-54
2021/09/19 01:17:29;;;;;;;3.17;1.45;;;;;;;13.49;85.37;100788.91;698143;28;1146;-51
2021/09/19 01:17:50;;;;;;;4.07;1.65;;;;;;;13.45;85.04;100787.22;695208;28;4330;-51
2021/09/19 01:18:12;;;;;;;2.65;1.60;;;;;;;13.45;84.72;100787.22;694423;28;1252;-51
2021/09/19 01:18:34;;;;;;;2.60;1.50;;;;;;;13.44;85.59;100793.38;695249;28;1349;-54
2021/09/19 01:18:55;;;;;;;2.33;1.42;;;;;;;13.42;85.27;100787.28;694328;28;1487;-56
2021/09/19 01:19:20;;;;;;;2.22;1.50;;;;;;;13.44;85.08;100785.47;694898;28;3207;-51
2021/09/19 01:19:41;;;;;;;3.00;1.60;;;;;;;13.47;84.93;100792.44;694011;28;1295;-53
2021/09/19 01:20:02;;;;;;;2.80;1.60;;;;;;;13.47;85.75;100795.94;694691;28;1075;-52
2021/09/19 01:20:23;;;;;;;2.58;1.40;;;;;;;13.48;85.55;100787.19;695533;28;1151;-54
2021/09/19 01:20:44;;;;;;;4.45;1.50;;;;;;;13.48;85.27;100787.19;694099;28;4341;-51
2021/09/19 01:21:05;;;;;;;3.97;1.58;;;;;;;13.49;84.60;100782.81;697752;28;1218;-57
2021/09/19 01:21:26;;;;;;;2.97;1.60;;;;;;;13.51;85.45;100786.25;697779;28;1107;-51
2021/09/19 01:21:48;;;;;;;2.57;1.50;;;;;;;13.49;84.70;100788.06;697762;28;1174;-53
2021/09/19 01:22:09;;;;;;;2.55;1.55;;;;;;;13.50;84.80;100782.78;698565;28;3108;-53
2021/09/19 01:22:38;;;;;;;2.83;1.60;;;;;;;13.48;86.15;100787.19;697125;28;3463;-51
2021/09/19 01:22:59;;;;;;;2.38;1.40;;;;;;;13.49;85.40;100782.81;697361;28;1409;-51
2021/09/19 01:23:19;;;;;;;2.63;1.60;;;;;;;13.52;84.72;100783.63;697989;28;1162;-51
2021/09/19 01:23:55;;;;;;;2.43;1.50;;;;;;;13.54;84.38;100781.84;698151;28;1049;-52
2021/09/19 01:24:16;;;;;;;3.78;1.58;;;;;;;13.55;85.67;100787.97;697443;28;4825;-51
2021/09/19 01:24:36;;;;;;;3.60;1.50;;;;;;;13.56;84.67;100784.44;697769;28;1039;-55
2021/09/19 01:24:58;;;;;;;3.55;1.50;;;;;;;13.57;84.38;100781.78;698073;28;1356;-54
2021/09/19 01:25:18;;;;;;;2.88;1.60;;;;;;;13.59;84.06;100787.88;695590;28;3387;-52
2021/09/19 01:25:41;;;;;;;3.03;1.53;;;;;;;13.60;83.73;100780.88;696225;28;1086;-53
2021/09/19 01:26:01;;;;;;;2.03;1.45;;;;;;;13.61;83.69;100780.84;697736;28;1665;-53
2021/09/19 01:26:23;;;;;;;2.70;1.50;;;;;;;13.63;83.58;100786.09;697408;28;1189;-52
2021/09/19 01:26:44;;;;;;;3.33;1.50;;;;;;;13.63;84.01;100776.44;697745;28;4371;-51
2021/09/19 01:27:05;;;;;;;3.10;1.50;;;;;;;13.65;83.75;100783.44;697822;28;1233;-52
2021/09/19 01:27:26;;;;;;;2.63;1.52;;;;;;;13.66;83.73;100783.41;697656;28;1221;-55
2021/09/19 01:27:46;;;;;;;2.70;1.60;;;;;;;13.68;83.68;100783.38;697565;28;1180;-55
2021/09/19 01:28:07;;;;;;;2.25;1.30;;;;;;;13.68;83.28;100781.63;694574;28;2080;-52
2021/09/19 01:28:28;;;;;;;2.83;1.40;;;;;;;13.69;83.53;100785.13;694468;28;1214;-55
2021/09/19 01:28:48;;;;;;;3.20;1.50;;;;;;;13.70;83.21;100782.47;694645;28;1498;-52
2021/09/19 01:29:09;;;;;;;2.38;1.38;;;;;;;13.71;83.13;100780.72;697608;28;1248;-51
2021/09/19 01:29:29;;;;;;;2.30;1.30;;;;;;;13.73;83.16;100784.19;697754;28;1170;-51
2021/09/19 01:29:50;;;;;;;2.70;1.50;;;;;;;13.72;84.20;100785.94;695650;28;4348;-55
2021/09/19 01:30:11;;;;;;;2.80;1.50;;;;;;;13.70;83.26;100785.09;695174;28;1981;-51
2021/09/19 01:30:32;;;;;;;2.85;1.60;;;;;;;13.72;83.19;100779.81;695143;28;1162;-54
2021/09/19 01:30:53;;;;;;;2.88;1.60;;;;;;;13.69;84.06;100774.59;694418;28;1019;-54
2021/09/19 01:31:13;;;;;;;4.00;1.60;;;;;;;13.68;83.26;100783.38;694683;28;3257;-52
2021/09/19 01:31:34;;;;;;;2.92;1.45;;;;;;;13.68;83.21;100791.25;694798;28;1096;-52
2021/09/19 01:31:56;;;;;;;3.05;1.40;;;;;;;13.67;83.06;100781.66;694612;28;1395;-55
2021/09/19 01:32:21;;;;;;;2.85;1.40;;;;;;;13.61;83.75;100775.59;695108;28;1313;-53
2021/09/19 01:32:42;;;;;;;2.70;1.40;;;;;;;13.61;84.00;100778.22;693003;28;4786;-53
2021/09/19 01:33:04;;;;;;;2.60;1.40;;;;;;;13.58;84.16;100775.66;695460;28;1218;-52
2021/09/19 01:33:24;;;;;;;2.67;1.40;;;;;;;13.56;83.41;100781.81;695361;28;1103;-54
2021/09/19 01:33:44;;;;;;;2.20;1.40;;;;;;;13.55;83.34;100782.69;693825;28;1210;-52
2021/09/19 01:34:05;;;;;;;2.45;1.40;;;;;;;13.55;83.45;100775.69;694514;28;3919;-53
2021/09/19 01:34:28;;;;;;;5.10;1.60;;;;;;;13.58;83.53;100777.41;695278;28;1086;-55
2021/09/19 01:34:50;;;;;;;4.38;1.58;;;;;;;13.58;83.67;100773.03;693682;28;1035;-54
2021/09/19 01:35:11;;;;;;;2.47;1.60;;;;;;;13.58;85.96;100773.03;695161;28;1055;-51
2021/09/19 01:35:31;;;;;;;3.58;1.67;;;;;;;13.54;84.81;100773.97;694991;28;1344;-51
2021/09/19 01:35:52;;;;;;;2.92;1.40;;;;;;;13.54;84.19;100783.59;692788;28;4318;-52
2021/09/19 01:36:13;;;;;;;2.90;1.47;;;;;;;13.56;84.64;100782.69;695036;28;1349;-56
2021/09/19 01:36:36;;;;;;;3.13;1.50;;;;;;;13.57;84.18;100776.53;695197;28;1063;-54
2021/09/19 01:36:57;;;;;;;2.40;1.33;;;;;;;13.58;84.26;100778.28;694747;28;3722;-51
2021/09/19 01:37:18;;;;;;;2.47;1.40;;;;;;;13.53;83.92;100774.84;694949;28;3774;-54
2021/09/19 01:37:39;;;;;;;2.30;1.33;;;;;;;13.52;83.57;100788.88;694238;28;1046;-54
2021/09/19 01:38:00;;;;;;;2.10;1.30;;;;;;;13.53;84.35;100781.88;694453;28;1125;-54
2021/09/19 01:38:23;;;;;;;2.80;1.50;;;;;;;13.51;84.81;100781.88;695956;28;1198;-52
2021/09/19 01:38:44;;;;;;;2.38;1.40;;;;;;;13.53;84.43;100777.47;697432;28;4594;-53
2021/09/19 01:39:05;;;;;;;2.47;1.42;;;;;;;13.52;84.35;100774.88;700667;28;1267;-51
2021/09/19 01:39:25;;;;;;;2.83;1.48;;;;;;;13.49;84.69;100780.19;697849;28;1156;-51
2021/09/19 01:39:46;;;;;;;2.60;1.40;;;;;;;13.51;83.91;100784.50;697425;28;1163;-51
2021/09/19 01:40:08;;;;;;;3.15;1.38;;;;;;;13.52;84.41;100773.09;697287;28;3565;-51
2021/09/19 01:40:29;;;;;;;2.97;1.50;;;;;;;13.49;85.01;100778.41;694835;28;1612;-56
2021/09/19 01:40:49;;;;;;;2.92;1.52;;;;;;;13.49;84.59;100775.78;694085;28;1510;-54
2021/09/19 01:41:16;;;;;;;2.63;1.58;;;;;;;13.45;84.76;100776.72;695462;28;1168;-55